createdAt,value
2023-02-12T00:01:38.422Z,80.96
2023-02-12T00:05:42.109Z,81.03
2023-02-12T00:09:46.272Z,81.26
2023-02-12T00:13:49.077Z,81.32
2023-02-12T00:17:51.686Z,81.44
2023-02-12T00:21:54.319Z,81.17
2023-02-12T00:25:58.366Z,80.71
2023-02-12T00:30:01.028Z,80.99
2023-02-12T00:34:03.688Z,81.00
2023-02-12T00:38:06.349Z,80.97
2023-02-12T00:42:10.322Z,81.43
2023-02-12T00:46:13.034Z,81.54
2023-02-12T00:50:15.786Z,81.74
2023-02-12T00:54:18.605Z,81.72
2023-02-12T00:58:22.866Z,82.00
2023-02-12T01:02:25.717Z,81.92
2023-02-12T01:06:28.408Z,82.09
2023-02-12T01:10:31.268Z,82.37
2023-02-12T01:14:35.569Z,82.53
2023-02-12T01:18:39.058Z,82.43
2023-02-12T01:22:41.814Z,82.36
2023-02-12T01:26:44.433Z,82.10
2023-02-12T01:30:48.520Z,81.77
2023-02-12T01:34:51.466Z,81.81
2023-02-12T01:38:54.121Z,82.10
2023-02-12T01:42:56.745Z,82.15
2023-02-12T01:47:02.321Z,82.24
2023-02-12T01:51:06.000Z,82.37
2023-02-12T01:55:11.144Z,82.81
2023-02-12T01:59:14.461Z,82.49
2023-02-12T02:03:18.513Z,82.57
2023-02-12T02:07:21.164Z,82.35
2023-02-12T02:11:42.050Z,82.93
2023-02-12T02:15:50.419Z,83.29
2023-02-12T02:20:34.411Z,83.36
2023-02-12T02:25:00.793Z,83.37
2023-02-12T02:29:21.546Z,83.64
2023-02-12T02:33:38.463Z,83.83
2023-02-12T02:37:45.127Z,83.96
2023-02-12T02:41:56.495Z,83.86
2023-02-12T02:46:04.368Z,84.29
2023-02-12T02:50:12.713Z,84.17
2023-02-12T02:54:20.872Z,84.47
2023-02-12T02:58:27.587Z,84.64
2023-02-12T03:02:33.646Z,84.93
2023-02-12T03:06:45.152Z,85.44
2023-02-12T03:10:50.742Z,86.29
2023-02-12T03:14:58.319Z,86.93
2023-02-12T03:19:07.069Z,87.00
2023-02-12T03:23:13.965Z,87.54
2023-02-12T03:27:19.035Z,88.04
2023-02-12T03:31:31.775Z,88.56
2023-02-12T03:35:42.849Z,89.03
2023-02-12T03:39:54.297Z,89.65
2023-02-12T03:44:05.455Z,90.20
2023-02-12T03:48:14.763Z,90.20
2023-02-12T03:52:17.379Z,90.33
2023-02-12T03:56:26.516Z,90.97
2023-02-12T04:00:29.325Z,91.15
2023-02-12T04:04:32.747Z,91.40
2023-02-12T04:08:35.384Z,91.66
2023-02-12T04:12:47.843Z,91.92
2023-02-12T04:16:55.628Z,92.22
2023-02-12T04:21:08.006Z,92.59
2023-02-12T04:25:21.612Z,92.50
2023-02-12T04:29:33.226Z,92.86
2023-02-12T04:33:41.076Z,92.97
2023-02-12T04:37:46.439Z,93.23
2023-02-12T04:41:49.292Z,93.40
2023-02-12T04:45:53.575Z,93.50
2023-02-12T04:49:56.389Z,93.26
2023-02-12T04:53:58.944Z,93.35
2023-02-12T04:58:01.651Z,93.66
2023-02-12T05:02:05.639Z,93.21
2023-02-12T05:06:10.029Z,93.62
2023-02-12T05:10:12.782Z,93.72
2023-02-12T05:14:15.428Z,93.83
2023-02-12T05:18:19.337Z,93.71
2023-02-12T05:22:22.080Z,93.88
2023-02-12T05:26:24.751Z,93.87
2023-02-12T05:30:27.323Z,93.88
2023-02-12T05:34:31.381Z,93.85
2023-02-12T05:38:34.030Z,93.90
2023-02-12T05:42:36.628Z,93.80
2023-02-12T05:46:40.041Z,93.95
2023-02-12T05:50:44.007Z,93.78
2023-02-12T05:54:46.589Z,93.94
2023-02-12T05:58:53.027Z,93.99
2023-02-12T06:02:55.677Z,93.82
2023-02-12T06:07:01.733Z,93.99
2023-02-12T06:11:06.129Z,93.81
2023-02-12T06:15:09.557Z,93.59
2023-02-12T06:19:12.249Z,93.41
2023-02-12T06:23:16.206Z,93.46
2023-02-12T06:27:18.878Z,93.41
2023-02-12T06:31:24.512Z,93.24
2023-02-12T06:35:27.198Z,93.00
2023-02-12T06:39:31.138Z,92.95
2023-02-12T06:43:33.728Z,92.94
2023-02-12T06:47:36.337Z,95.01
2023-02-12T06:51:41.225Z,95.44
2023-02-12T06:55:45.172Z,95.54
2023-02-12T06:59:47.805Z,93.03
2023-02-12T07:03:52.038Z,92.51
2023-02-12T07:07:54.695Z,92.56
2023-02-12T07:11:59.104Z,92.43
2023-02-12T07:16:04.814Z,92.41
2023-02-12T07:20:08.916Z,92.51
2023-02-12T07:24:12.995Z,92.36
2023-02-12T07:28:17.032Z,92.31
2023-02-12T07:32:19.666Z,91.87
2023-02-12T07:36:22.333Z,92.21
2023-02-12T07:40:24.908Z,92.32
2023-02-12T07:44:29.328Z,92.66
2023-02-12T07:48:31.915Z,94.07
2023-02-12T07:52:34.558Z,94.13
2023-02-12T07:56:39.059Z,90.94
2023-02-12T08:00:42.964Z,91.38
2023-02-12T08:04:45.576Z,94.21
2023-02-12T08:08:48.537Z,91.02
2023-02-12T08:12:51.145Z,90.67
2023-02-12T08:16:55.208Z,90.66
2023-02-12T08:21:02.944Z,90.99
2023-02-12T08:25:05.924Z,91.19
2023-02-12T08:29:10.257Z,91.51
2023-02-12T08:33:14.153Z,91.15
2023-02-12T08:37:16.751Z,91.29
2023-02-12T08:41:21.740Z,91.53
2023-02-12T08:45:24.385Z,91.52
2023-02-12T08:49:30.635Z,91.41
2023-02-12T08:53:33.400Z,91.53
2023-02-12T08:57:36.079Z,91.14
2023-02-12T09:01:41.677Z,90.64
2023-02-12T09:05:45.724Z,90.82
2023-02-12T09:09:48.407Z,90.87
2023-02-12T09:13:51.446Z,90.68
2023-02-12T09:17:54.123Z,90.41
2023-02-12T09:21:58.309Z,90.41
2023-02-12T09:26:01.184Z,90.03
2023-02-12T09:30:03.970Z,89.75
2023-02-12T09:34:07.858Z,89.34
2023-02-12T09:38:11.845Z,89.08
2023-02-12T09:42:38.956Z,89.10
2023-02-12T09:46:48.817Z,88.84
2023-02-12T09:50:54.895Z,88.40
2023-02-12T09:54:59.948Z,88.10
2023-02-12T09:59:06.655Z,87.74
2023-02-12T10:03:13.628Z,87.57
2023-02-12T10:07:30.418Z,87.09
2023-02-12T10:11:56.443Z,87.08
2023-02-12T10:16:11.032Z,86.28
2023-02-12T10:20:29.784Z,86.29
2023-02-12T10:24:57.955Z,86.78
2023-02-12T10:29:12.180Z,86.06
2023-02-12T10:33:18.594Z,85.82
2023-02-12T10:37:29.377Z,85.41
2023-02-12T10:41:34.148Z,85.68
2023-02-12T10:45:40.840Z,84.83
2023-02-12T10:49:43.510Z,84.54
2023-02-12T10:53:48.437Z,84.26
2023-02-12T10:57:51.300Z,83.77
2023-02-12T11:01:55.270Z,83.41
2023-02-12T11:05:58.167Z,83.30
2023-02-12T11:10:01.014Z,83.45
2023-02-12T11:14:07.048Z,81.56
2023-02-12T11:18:23.023Z,81.79
2023-02-12T11:22:25.680Z,81.95
2023-02-12T11:26:30.025Z,80.78
2023-02-12T11:30:33.520Z,80.50
2023-02-12T11:34:37.649Z,80.35
2023-02-12T11:38:48.852Z,80.44
2023-02-12T11:42:53.619Z,80.77
2023-02-12T11:46:58.269Z,80.83
2023-02-12T11:51:05.120Z,80.47
2023-02-12T11:55:19.255Z,80.23
2023-02-12T11:59:37.482Z,80.14
2023-02-12T12:03:46.686Z,79.61
2023-02-12T12:07:56.635Z,79.61
2023-02-12T12:12:05.796Z,78.08
2023-02-12T12:16:31.771Z,77.51
2023-02-12T12:20:42.311Z,77.39
2023-02-12T12:24:54.028Z,76.68
2023-02-12T12:29:06.158Z,76.61
2023-02-12T12:33:17.252Z,76.34
2023-02-12T12:37:30.140Z,76.75
2023-02-12T12:41:48.379Z,78.79
2023-02-12T12:46:10.543Z,76.32
2023-02-12T12:50:35.557Z,74.85
2023-02-12T12:54:46.294Z,76.18
2023-02-12T12:59:10.788Z,73.79
2023-02-12T13:03:37.672Z,73.58
2023-02-12T13:07:53.981Z,74.87
2023-02-12T13:12:13.378Z,74.54
2023-02-12T13:16:23.258Z,72.99
2023-02-12T13:20:35.492Z,73.14
2023-02-12T13:24:46.411Z,68.11
2023-02-12T13:28:53.660Z,64.81
2023-02-12T13:33:06.608Z,62.97
2023-02-12T13:37:17.226Z,60.80
2023-02-12T13:41:21.657Z,60.81
2023-02-12T13:45:37.238Z,59.80
2023-02-12T13:49:49.571Z,59.00
2023-02-12T13:54:03.585Z,58.66
2023-02-12T13:58:40.171Z,59.64
2023-02-12T14:02:45.964Z,62.08
2023-02-12T14:07:01.395Z,63.42
2023-02-12T14:11:08.239Z,61.28
2023-02-12T14:15:22.140Z,58.54
2023-02-12T14:19:55.029Z,58.04
2023-02-12T14:24:52.108Z,57.83
2023-02-12T14:28:58.243Z,59.03
2023-02-12T14:33:25.198Z,60.69
2023-02-12T14:37:39.881Z,60.69
2023-02-12T14:41:43.846Z,61.09
2023-02-12T14:45:46.470Z,60.37
2023-02-12T14:49:51.653Z,59.34
2023-02-12T14:53:57.183Z,60.08
2023-02-12T14:58:05.921Z,60.30
2023-02-12T15:02:14.945Z,60.29
2023-02-12T15:06:19.546Z,59.22
2023-02-12T15:10:25.641Z,58.51
2023-02-12T15:14:31.906Z,58.40
2023-02-12T15:18:48.887Z,59.16
2023-02-12T15:22:51.714Z,59.38
2023-02-12T15:26:56.997Z,59.74
2023-02-12T15:31:02.193Z,59.75
2023-02-12T15:35:05.390Z,60.40
2023-02-12T15:39:10.131Z,61.74
2023-02-12T15:43:19.268Z,63.07
2023-02-12T15:47:26.174Z,64.67
2023-02-12T15:51:34.806Z,65.54
2023-02-12T15:55:41.088Z,67.59
2023-02-12T15:59:43.818Z,68.60
2023-02-12T16:03:50.995Z,68.76
2023-02-12T16:07:54.209Z,69.14
2023-02-12T16:11:59.204Z,69.88
2023-02-12T16:16:08.533Z,70.18
2023-02-12T16:20:24.805Z,70.00
2023-02-12T16:24:33.222Z,70.04
2023-02-12T16:28:35.930Z,71.04
2023-02-12T16:32:40.636Z,71.19
2023-02-12T16:36:48.225Z,79.60
2023-02-12T16:41:16.824Z,79.29
2023-02-12T16:45:44.077Z,76.62
2023-02-12T16:49:55.238Z,71.62
2023-02-12T16:54:00.622Z,73.14
2023-02-12T16:58:03.560Z,75.45
2023-02-12T17:02:12.630Z,76.39
2023-02-12T17:06:15.602Z,75.73
2023-02-12T17:10:20.000Z,75.79
2023-02-12T17:14:22.636Z,76.44
2023-02-12T17:18:26.056Z,76.84
2023-02-12T17:22:28.718Z,77.23
2023-02-12T17:26:32.739Z,77.73
2023-02-12T17:30:37.321Z,78.39
2023-02-12T17:34:48.693Z,77.76
2023-02-12T17:38:52.177Z,77.73
2023-02-12T17:42:56.185Z,76.21
2023-02-12T17:46:58.992Z,77.07
2023-02-12T17:51:01.778Z,77.51
2023-02-12T17:55:05.488Z,77.89
2023-02-12T17:59:09.388Z,84.87
2023-02-12T18:03:12.379Z,80.25
2023-02-12T18:07:15.087Z,78.61
2023-02-12T18:11:18.968Z,79.27
2023-02-12T18:15:22.936Z,80.29
2023-02-12T18:19:26.213Z,80.17
2023-02-12T18:23:28.763Z,79.50
2023-02-12T18:27:31.390Z,79.82
2023-02-12T18:31:35.983Z,80.11
2023-02-12T18:35:41.623Z,80.01
2023-02-12T18:39:44.255Z,78.91
2023-02-12T18:43:47.221Z,80.11
2023-02-12T18:47:51.125Z,80.71
2023-02-12T18:51:53.866Z,80.24
2023-02-12T18:55:56.532Z,80.87
2023-02-12T18:59:59.133Z,81.41
2023-02-12T19:04:05.150Z,81.01
2023-02-12T19:08:07.942Z,80.78
2023-02-12T19:12:10.847Z,81.29
2023-02-12T19:16:17.352Z,81.77
2023-02-12T19:20:21.619Z,82.08
2023-02-12T19:24:24.248Z,82.15
2023-02-12T19:28:26.881Z,82.45
2023-02-12T19:32:29.693Z,83.00
2023-02-12T19:36:35.474Z,83.69
2023-02-12T19:40:38.068Z,83.56
2023-02-12T19:44:40.757Z,83.74
2023-02-12T19:48:44.173Z,83.78
2023-02-12T19:52:48.458Z,83.94
2023-02-12T19:56:52.826Z,84.48
2023-02-12T20:00:55.670Z,85.80
2023-02-12T20:04:58.710Z,86.76
2023-02-12T20:09:02.912Z,86.13
2023-02-12T20:13:05.601Z,85.36
2023-02-12T20:17:08.406Z,84.50
2023-02-12T20:21:14.060Z,84.89
2023-02-12T20:25:18.246Z,84.74
2023-02-12T20:29:21.527Z,84.43
2023-02-12T20:33:24.324Z,84.52
2023-02-12T20:37:27.025Z,84.98
2023-02-12T20:41:31.022Z,84.49
2023-02-12T20:45:35.680Z,84.42
2023-02-12T20:49:38.492Z,85.05
2023-02-12T20:53:42.173Z,85.13
2023-02-12T20:57:46.191Z,85.34
2023-02-12T21:01:48.909Z,85.46
2023-02-12T21:05:51.580Z,85.40
2023-02-12T21:09:54.399Z,85.35
2023-02-12T21:14:20.874Z,85.47
2023-02-12T21:18:25.561Z,86.50
2023-02-12T21:22:28.281Z,86.82
2023-02-12T21:26:33.132Z,87.24
2023-02-12T21:30:37.102Z,87.61
2023-02-12T21:34:39.865Z,88.67
2023-02-12T21:38:44.295Z,88.97
2023-02-12T21:42:46.904Z,89.10
2023-02-12T21:46:51.157Z,89.41
2023-02-12T21:50:53.825Z,89.15
2023-02-12T21:54:57.253Z,89.89
2023-02-12T21:59:00.523Z,90.09
2023-02-12T22:03:04.639Z,90.49
2023-02-12T22:07:08.196Z,91.01
2023-02-12T22:11:12.758Z,91.76
2023-02-12T22:15:15.644Z,91.64
2023-02-12T22:19:19.790Z,91.68
2023-02-12T22:23:22.434Z,91.67
2023-02-12T22:27:25.165Z,91.94
2023-02-12T22:31:31.198Z,92.36
2023-02-12T22:35:35.318Z,92.22
2023-02-12T22:39:37.902Z,91.95
2023-02-12T22:43:41.581Z,91.97
2023-02-12T22:47:44.179Z,91.70
2023-02-12T22:51:48.142Z,91.59
2023-02-12T22:55:50.908Z,91.73
2023-02-12T22:59:53.540Z,91.84
2023-02-12T23:03:56.201Z,92.08
2023-02-12T23:08:00.225Z,92.07
2023-02-12T23:12:07.478Z,91.90
2023-02-12T23:16:10.119Z,92.02
2023-02-12T23:20:13.964Z,92.31
2023-02-12T23:24:17.917Z,92.08
2023-02-12T23:28:20.488Z,92.23
2023-02-12T23:32:23.276Z,92.61
2023-02-12T23:36:26.008Z,92.57
2023-02-12T23:40:30.022Z,92.80
2023-02-12T23:44:32.832Z,92.87
2023-02-12T23:48:35.523Z,92.64
2023-02-12T23:52:38.092Z,92.51
2023-02-12T23:56:42.189Z,92.85
